createdAt,value
2023-03-23T16:01:46.608Z,16.81
2023-03-23T16:06:52.151Z,16.62
2023-03-23T16:11:56.804Z,16.51
2023-03-23T16:17:00.739Z,16.39
2023-03-23T16:22:05.808Z,16.25
2023-03-23T16:27:11.813Z,16.12
2023-03-23T16:32:15.984Z,15.97
2023-03-23T16:37:21.804Z,15.85
2023-03-23T16:42:26.250Z,15.71
2023-03-23T16:47:30.612Z,15.58
2023-03-23T16:52:34.843Z,15.49
2023-03-23T16:57:54.189Z,15.37
2023-03-23T17:03:02.480Z,15.22
2023-03-23T17:08:06.748Z,15.10
2023-03-23T17:13:11.383Z,14.94
2023-03-23T17:18:16.849Z,14.88
2023-03-23T17:23:20.924Z,14.77
2023-03-23T17:28:24.821Z,14.67
2023-03-23T17:33:29.347Z,14.61
2023-03-23T17:38:34.171Z,14.56
2023-03-23T17:43:41.761Z,14.55
2023-03-23T17:48:48.254Z,14.51
2023-03-23T17:53:53.495Z,14.45
2023-03-23T17:58:58.157Z,14.53
2023-03-23T18:04:05.769Z,14.65
2023-03-23T18:09:11.036Z,14.70
2023-03-23T18:14:16.481Z,14.74
2023-03-23T18:19:21.208Z,14.76
2023-03-23T18:24:26.928Z,14.78
2023-03-23T18:29:34.539Z,14.74
2023-03-23T18:34:45.312Z,14.76
2023-03-23T18:39:51.460Z,14.78
2023-03-23T18:45:00.946Z,14.81
2023-03-23T18:50:08.679Z,14.85
2023-03-23T18:55:18.133Z,14.82
2023-03-23T19:00:26.779Z,14.84
2023-03-23T19:05:47.790Z,14.83
2023-03-23T19:11:05.653Z,14.82
2023-03-23T19:16:12.977Z,14.79
2023-03-23T19:21:25.908Z,14.75
2023-03-23T19:26:41.868Z,14.70
2023-03-23T19:31:50.543Z,14.69
2023-03-23T19:37:05.429Z,14.72
2023-03-23T19:42:18.052Z,14.72
2023-03-23T19:47:23.015Z,14.69
2023-03-23T19:52:29.517Z,14.66
2023-03-23T19:57:36.063Z,14.64
2023-03-23T20:02:42.125Z,14.60
2023-03-23T20:07:51.734Z,14.53
2023-03-23T20:13:02.452Z,14.50
2023-03-23T20:18:09.781Z,14.49
2023-03-23T20:23:19.364Z,14.48
2023-03-23T20:28:25.505Z,14.46
2023-03-23T20:33:40.913Z,14.42
2023-03-23T20:38:48.332Z,14.37
2023-03-23T20:43:54.382Z,14.33
2023-03-23T20:49:01.584Z,14.28
2023-03-23T20:54:07.407Z,14.17
2023-03-23T20:59:14.500Z,14.00
2023-03-23T21:04:23.897Z,13.77
2023-03-23T21:09:30.755Z,13.63
2023-03-23T21:14:39.496Z,13.43
2023-03-23T21:19:53.182Z,13.15
2023-03-23T21:25:03.042Z,12.94
2023-03-23T21:30:08.326Z,12.78
2023-03-23T21:35:13.114Z,12.72
2023-03-23T21:40:18.221Z,12.59
2023-03-23T21:45:22.201Z,12.43
2023-03-23T21:50:26.204Z,12.36
2023-03-23T21:55:33.966Z,12.30
2023-03-23T22:00:38.224Z,12.20
2023-03-23T22:05:43.111Z,12.15
2023-03-23T22:11:01.128Z,12.12
2023-03-23T22:16:18.222Z,12.08
2023-03-23T22:21:26.265Z,12.08
2023-03-23T22:26:30.995Z,12.04
2023-03-23T22:31:40.001Z,11.90
2023-03-23T22:36:43.861Z,11.69
2023-03-23T22:41:48.301Z,11.47
2023-03-23T22:46:53.448Z,11.31
2023-03-23T22:51:58.049Z,11.19
2023-03-23T22:57:02.522Z,11.11
2023-03-23T23:02:07.372Z,11.10
2023-03-23T23:07:14.784Z,11.04
2023-03-23T23:12:20.535Z,11.04
2023-03-23T23:17:27.548Z,11.01
2023-03-23T23:22:32.247Z,10.89
2023-03-23T23:27:37.513Z,10.80
2023-03-23T23:32:43.168Z,10.79
2023-03-23T23:37:49.022Z,10.86
2023-03-23T23:42:54.111Z,10.99
2023-03-23T23:47:58.669Z,11.18
2023-03-23T23:53:02.804Z,11.42
2023-03-23T23:58:06.762Z,11.53
